Řízení letového provozu České republiky
Letiste: LKKB Aktualizace: 24.03.2019 21:01:06  UTC
 METAR LKKB 24.03. 21:00 ...
METAR LKKB 242100Z 30004KT 9999 OVC032 08/03 Q1019 NOSIG RMK BLU BLU=
 TAF LKKB 24.03. 17:00 ...
TAF LKKB 241700Z 2418/2518 32006KT 9999 BKN025      TEMPO 2418/2422 OVC022      BECMG 2502/2504 CAVOK      BECMG 2507/2509 28014KT BKN030      TEMPO 2510/2518 28014G24KT 7000 SHRA SCT020TCU BKN025=